Time;durP1;ratioP1;P1;durP2;ratioP2;P2;SDS_P1;SDS_P2;PMS_P1;PMS_P2;Temp;Humidity;BMP_temperature;BMP_pressure;BME280_temperature;BME280_humidity;BME280_pressure;Samples;Min_cycle;Max_cycle;Signal;HPM_P1;HPM_P2
2023/07/15 00:00:18;;;;;;;2.45;1.27;;;;;;;;;;4979239;28;20035;-96
2023/07/15 00:02:49;;;;;;;1.50;1.20;;;;;;;;;;4978158;28;20098;-96
2023/07/15 00:05:29;;;;;;;2.90;1.27;;;;;;;;;;4994360;28;20031;-96
2023/07/15 00:07:55;;;;;;;3.78;1.50;;;;;;;;;;4977883;28;20039;-96
2023/07/15 00:10:21;;;;;;;2.08;1.10;;;;;;;;;;4979027;28;20027;-96
2023/07/15 00:12:48;;;;;;;2.78;1.30;;;;;;;;;;4979038;28;20065;-96
2023/07/15 00:15:17;;;;;;;2.28;1.40;;;;;;;;;;4993851;28;20031;-96
2023/07/15 00:17:47;;;;;;;3.28;1.63;;;;;;;;;;4994375;28;20516;-96
2023/07/15 00:20:18;;;;;;;1.50;1.40;;;;;;;;;;4994199;28;20035;-96
2023/07/15 00:22:46;;;;;;;2.15;1.40;;;;;;;;;;4993417;28;20357;-96
2023/07/15 00:25:17;;;;;;;5.18;1.75;;;;;;;;;;4979033;28;20030;-96
2023/07/15 00:27:50;;;;;;;3.13;1.40;;;;;;;;;;4977729;28;20039;-96
2023/07/15 00:30:19;;;;;;;3.08;1.25;;;;;;;;;;4978221;28;20038;-96
2023/07/15 00:32:50;;;;;;;1.83;1.30;;;;;;;;;;4970038;28;20031;-96
2023/07/15 00:35:28;;;;;;;2.95;1.38;;;;;;;;;;4961615;28;20050;-96
2023/07/15 00:38:00;;;;;;;3.92;1.27;;;;;;;;;;4977305;28;20178;-96
2023/07/15 00:40:29;;;;;;;3.15;1.58;;;;;;;;;;4978202;28;20031;-96
2023/07/15 00:43:32;;;;;;;4.20;1.50;;;;;;;;;;4979003;28;20038;-96
2023/07/15 00:46:19;;;;;;;2.35;1.30;;;;;;;;;;4968626;28;20039;-96
2023/07/15 00:49:13;;;;;;;3.97;1.50;;;;;;;;;;4994385;28;20035;-96
2023/07/15 00:51:42;;;;;;;1.30;1.20;;;;;;;;;;4978480;28;20039;-96
2023/07/15 00:54:09;;;;;;;5.10;1.70;;;;;;;;;;4977690;28;20097;-96
2023/07/15 00:56:36;;;;;;;6.18;1.92;;;;;;;;;;4977379;28;20401;-96
2023/07/15 00:59:04;;;;;;;2.22;1.38;;;;;;;;;;4986161;28;20038;-96
2023/07/15 01:01:35;;;;;;;4.38;1.75;;;;;;;;;;4993811;28;20156;-96
2023/07/15 01:04:01;;;;;;;2.00;1.48;;;;;;;;;;4977744;28;20037;-96
2023/07/15 01:06:27;;;;;;;2.30;1.30;;;;;;;;;;4993333;28;20027;-96
2023/07/15 01:08:53;;;;;;;1.83;1.40;;;;;;;;;;4993600;28;20038;-96
2023/07/15 01:11:20;;;;;;;2.70;1.30;;;;;;;;;;4978448;28;20082;-96
2023/07/15 01:13:47;;;;;;;1.63;1.33;;;;;;;;;;4977101;28;20023;-96
2023/07/15 01:16:14;;;;;;;1.60;1.40;;;;;;;;;;4977626;28;20069;-96
2023/07/15 01:18:45;;;;;;;2.08;1.40;;;;;;;;;;4977084;28;20026;-96
2023/07/15 01:21:13;;;;;;;2.00;1.33;;;;;;;;;;4993707;28;20030;-96
2023/07/15 01:23:38;;;;;;;1.77;1.30;;;;;;;;;;4977186;28;20114;-96
2023/07/15 01:26:04;;;;;;;2.08;1.15;;;;;;;;;;4976923;28;20109;-96
2023/07/15 01:28:29;;;;;;;2.33;1.40;;;;;;;;;;4992799;28;20115;-96
2023/07/15 01:30:58;;;;;;;2.30;1.40;;;;;;;;;;4978171;28;20023;-96
2023/07/15 01:33:25;;;;;;;2.92;1.77;;;;;;;;;;4977198;28;20110;-96
2023/07/15 01:35:56;;;;;;;2.95;1.23;;;;;;;;;;4973460;28;20221;-96
2023/07/15 01:38:22;;;;;;;2.67;1.50;;;;;;;;;;4972099;28;20497;-96
2023/07/15 01:40:54;;;;;;;2.88;1.30;;;;;;;;;;4977163;28;20039;-96
2023/07/15 01:43:23;;;;;;;4.47;2.00;;;;;;;;;;4977200;28;20029;-96
2023/07/15 01:45:48;;;;;;;2.60;1.60;;;;;;;;;;4993988;28;20034;-96
2023/07/15 01:48:14;;;;;;;3.03;1.90;;;;;;;;;;4975339;28;20393;-96
2023/07/15 01:50:39;;;;;;;2.25;1.63;;;;;;;;;;4983232;28;20100;-96
2023/07/15 01:53:05;;;;;;;4.85;2.10;;;;;;;;;;4992622;28;20031;-96
2023/07/15 01:55:34;;;;;;;2.90;1.60;;;;;;;;;;4976518;28;20093;-96
2023/07/15 01:58:02;;;;;;;4.13;2.15;;;;;;;;;;4977044;28;20492;-96
2023/07/15 02:00:29;;;;;;;5.68;1.90;;;;;;;;;;4992415;28;20031;-96
2023/07/15 02:02:55;;;;;;;2.45;1.80;;;;;;;;;;4993104;28;20053;-96
2023/07/15 02:05:22;;;;;;;3.92;1.77;;;;;;;;;;4992306;28;20497;-96
2023/07/15 02:07:48;;;;;;;3.60;1.70;;;;;;;;;;4969720;28;20050;-96
2023/07/15 02:10:14;;;;;;;1.95;1.40;;;;;;;;;;4976942;28;20117;-96
2023/07/15 02:12:40;;;;;;;2.28;1.50;;;;;;;;;;4976490;28;20485;-96
2023/07/15 02:15:09;;;;;;;2.60;1.35;;;;;;;;;;4975951;28;20392;-96
2023/07/15 02:17:34;;;;;;;4.45;1.63;;;;;;;;;;4977408;28;20551;-96
2023/07/15 02:20:06;;;;;;;2.15;1.60;;;;;;;;;;4975760;28;20026;-96
2023/07/15 02:22:37;;;;;;;4.32;1.63;;;;;;;;;;4976134;28;20026;-96
2023/07/15 02:25:03;;;;;;;8.38;1.85;;;;;;;;;;4976513;28;20023;-96
2023/07/15 02:27:30;;;;;;;4.43;1.73;;;;;;;;;;4992122;28;20042;-96
2023/07/15 02:29:56;;;;;;;1.60;1.48;;;;;;;;;;4976441;28;20031;-96
2023/07/15 02:32:41;;;;;;;1.98;1.42;;;;;;;;;;4976313;28;20042;-96
2023/07/15 02:35:09;;;;;;;3.88;1.70;;;;;;;;;;4979115;28;20038;-96
2023/07/15 02:37:35;;;;;;;3.42;1.70;;;;;;;;;;4981840;28;20051;-96
2023/07/15 02:40:03;;;;;;;4.50;1.60;;;;;;;;;;4986542;28;20405;-96
2023/07/15 02:42:33;;;;;;;2.90;1.50;;;;;;;;;;4985227;28;20039;-96
2023/07/15 02:45:03;;;;;;;2.00;1.50;;;;;;;;;;4979336;28;20038;-96
2023/07/15 02:47:30;;;;;;;5.13;1.70;;;;;;;;;;4993553;28;20025;-96
2023/07/15 02:49:58;;;;;;;4.35;1.65;;;;;;;;;;4995625;28;20025;-96
2023/07/15 02:52:24;;;;;;;2.83;1.58;;;;;;;;;;4993157;28;20027;-96
2023/07/15 02:54:50;;;;;;;3.33;1.55;;;;;;;;;;4995151;28;20038;-96
2023/07/15 02:57:15;;;;;;;2.83;1.70;;;;;;;;;;4981550;28;20487;-96
2023/07/15 02:59:41;;;;;;;3.78;1.73;;;;;;;;;;4992596;28;20405;-96
2023/07/15 03:02:06;;;;;;;7.30;1.90;;;;;;;;;;4976510;28;20035;-96
2023/07/15 03:04:32;;;;;;;2.88;1.77;;;;;;;;;;4983558;28;20031;-96
2023/07/15 03:06:59;;;;;;;4.53;1.83;;;;;;;;;;4976364;28;20041;-96
2023/07/15 03:09:25;;;;;;;2.83;1.75;;;;;;;;;;4972102;28;20039;-96
2023/07/15 03:11:53;;;;;;;3.13;1.60;;;;;;;;;;4967764;28;20045;-96
2023/07/15 03:14:19;;;;;;;2.25;1.50;;;;;;;;;;4976755;28;20041;-96
2023/07/15 03:16:44;;;;;;;3.97;1.52;;;;;;;;;;4992248;28;20113;-96
2023/07/15 03:19:10;;;;;;;5.47;1.60;;;;;;;;;;4976072;28;20029;-96
2023/07/15 03:21:38;;;;;;;2.42;1.38;;;;;;;;;;4991487;28;20042;-96
2023/07/15 03:24:06;;;;;;;2.75;1.50;;;;;;;;;;4991222;28;20117;-96
2023/07/15 03:26:34;;;;;;;2.80;1.60;;;;;;;;;;4990997;28;20035;-96
2023/07/15 03:28:59;;;;;;;2.00;1.50;;;;;;;;;;4974854;28;20034;-96
2023/07/15 03:31:25;;;;;;;3.05;1.40;;;;;;;;;;4991771;28;20027;-96
2023/07/15 03:33:53;;;;;;;2.20;1.70;;;;;;;;;;4974430;28;20035;-96
2023/07/15 03:36:19;;;;;;;2.65;1.50;;;;;;;;;;4991156;28;20030;-96
2023/07/15 03:38:44;;;;;;;2.60;1.50;;;;;;;;;;4974555;28;20370;-96
2023/07/15 03:41:10;;;;;;;4.43;1.55;;;;;;;;;;4975823;28;20489;-96
2023/07/15 03:43:37;;;;;;;2.45;1.45;;;;;;;;;;4975215;28;20521;-96
2023/07/15 03:46:03;;;;;;;3.17;1.40;;;;;;;;;;4991377;28;20019;-96
2023/07/15 03:48:28;;;;;;;5.00;1.60;;;;;;;;;;4990622;28;20023;-96
2023/07/15 03:50:54;;;;;;;2.45;1.40;;;;;;;;;;4974682;28;20043;-96
2023/07/15 03:53:20;;;;;;;1.90;1.35;;;;;;;;;;4958429;28;20430;-96
2023/07/15 03:55:45;;;;;;;3.30;1.60;;;;;;;;;;4975484;28;20117;-96
2023/07/15 03:58:11;;;;;;;1.67;1.27;;;;;;;;;;4991282;28;20394;-96
2023/07/15 04:00:36;;;;;;;5.82;1.88;;;;;;;;;;4990554;28;20115;-96
2023/07/15 04:03:02;;;;;;;1.98;1.52;;;;;;;;;;4974769;28;20496;-96
2023/07/15 04:05:29;;;;;;;2.10;1.20;;;;;;;;;;4990483;28;20039;-96
2023/07/15 04:07:57;;;;;;;3.28;2.47;;;;;;;;;;4974285;28;20147;-96
2023/07/15 04:10:23;;;;;;;2.35;1.65;;;;;;;;;;4975215;28;20031;-96
2023/07/15 04:12:50;;;;;;;2.38;1.40;;;;;;;;;;4990027;28;20038;-96
2023/07/15 04:15:16;;;;;;;4.10;1.42;;;;;;;;;;4974300;28;20035;-96
2023/07/15 04:17:41;;;;;;;2.42;1.50;;;;;;;;;;4975435;28;20031;-96
2023/07/15 04:20:15;;;;;;;2.85;1.52;;;;;;;;;;4992349;28;20449;-96
2023/07/15 04:22:41;;;;;;;2.83;1.65;;;;;;;;;;4977225;28;20031;-96
2023/07/15 04:25:07;;;;;;;2.83;1.63;;;;;;;;;;4994241;28;20019;-96
2023/07/15 04:27:33;;;;;;;4.07;1.52;;;;;;;;;;4977997;28;20038;-96
2023/07/15 04:29:58;;;;;;;4.75;2.05;;;;;;;;;;4993996;28;20039;-96
2023/07/15 04:32:24;;;;;;;2.22;1.60;;;;;;;;;;4993606;28;20073;-96
2023/07/15 04:34:54;;;;;;;3.70;1.67;;;;;;;;;;4993711;28;20034;-96
2023/07/15 04:37:24;;;;;;;3.83;1.60;;;;;;;;;;4978163;28;20034;-96
2023/07/15 04:39:50;;;;;;;3.28;1.77;;;;;;;;;;4994132;28;20509;-96
2023/07/15 04:42:15;;;;;;;4.65;1.60;;;;;;;;;;4993682;28;20147;-96
2023/07/15 04:44:41;;;;;;;3.85;1.45;;;;;;;;;;4993507;28;20045;-96
2023/07/15 04:47:06;;;;;;;4.50;1.60;;;;;;;;;;4985235;28;20066;-96
2023/07/15 04:49:32;;;;;;;5.00;1.77;;;;;;;;;;4978408;28;20014;-96
2023/07/15 04:51:57;;;;;;;1.60;1.50;;;;;;;;;;4993370;28;20085;-96
2023/07/15 04:54:23;;;;;;;3.65;1.60;;;;;;;;;;4993500;28;20041;-96
2023/07/15 04:56:48;;;;;;;2.17;1.63;;;;;;;;;;4993623;28;20114;-96
2023/07/15 04:59:14;;;;;;;3.83;1.73;;;;;;;;;;4978456;28;20113;-96
2023/07/15 05:01:39;;;;;;;2.58;1.60;;;;;;;;;;4993190;28;20076;-96
2023/07/15 05:04:05;;;;;;;5.55;1.67;;;;;;;;;;4978013;28;20481;-96
2023/07/15 05:06:31;;;;;;;2.35;1.45;;;;;;;;;;4992989;28;20046;-96
2023/07/15 05:08:57;;;;;;;2.70;1.42;;;;;;;;;;4993777;28;20035;-96
2023/07/15 05:11:26;;;;;;;2.42;1.60;;;;;;;;;;4977987;28;20046;-96
2023/07/15 05:13:52;;;;;;;2.85;1.55;;;;;;;;;;4993151;28;20037;-96
2023/07/15 05:16:17;;;;;;;2.20;1.48;;;;;;;;;;4993247;28;20031;-96
2023/07/15 05:18:43;;;;;;;2.47;1.90;;;;;;;;;;4978171;28;20109;-96
2023/07/15 05:21:09;;;;;;;4.43;1.60;;;;;;;;;;4993770;28;20030;-96
2023/07/15 05:23:35;;;;;;;4.07;1.90;;;;;;;;;;4971048;28;20039;-96
2023/07/15 05:26:04;;;;;;;3.30;1.63;;;;;;;;;;4985458;28;20041;-96
2023/07/15 05:28:30;;;;;;;6.88;1.70;;;;;;;;;;4977632;28;20373;-96
2023/07/15 05:31:03;;;;;;;3.50;1.95;;;;;;;;;;4981113;28;20030;-96
2023/07/15 05:33:29;;;;;;;6.53;1.83;;;;;;;;;;4982904;28;20031;-96
2023/07/15 05:36:01;;;;;;;2.33;1.58;;;;;;;;;;4986915;28;20039;-96
2023/07/15 05:38:26;;;;;;;4.00;1.75;;;;;;;;;;4997780;28;20571;-96
2023/07/15 05:40:52;;;;;;;7.20;2.00;;;;;;;;;;4992573;28;20043;-96
2023/07/15 05:43:19;;;;;;;4.47;1.90;;;;;;;;;;4993339;28;20062;-96
2023/07/15 05:45:45;;;;;;;2.63;1.85;;;;;;;;;;4992980;28;20035;-96
2023/07/15 05:48:10;;;;;;;2.70;1.95;;;;;;;;;;4976611;28;20035;-96
2023/07/15 05:50:39;;;;;;;2.78;1.73;;;;;;;;;;4977014;28;20041;-96
2023/07/15 05:53:07;;;;;;;1.98;1.60;;;;;;;;;;4976249;28;20121;-96
2023/07/15 05:55:33;;;;;;;3.20;1.80;;;;;;;;;;4967691;28;20080;-96
2023/07/15 05:58:01;;;;;;;3.40;1.75;;;;;;;;;;4992718;28;20113;-96
2023/07/15 06:00:27;;;;;;;2.63;1.65;;;;;;;;;;4976607;28;20378;-96
2023/07/15 06:02:52;;;;;;;3.58;1.60;;;;;;;;;;4991848;28;20041;-96
2023/07/15 06:05:18;;;;;;;1.95;1.52;;;;;;;;;;4991654;28;20086;-96
2023/07/15 06:07:43;;;;;;;5.18;1.92;;;;;;;;;;4975795;28;20392;-96
2023/07/15 06:10:09;;;;;;;4.10;1.58;;;;;;;;;;4992663;28;20033;-96
2023/07/15 06:12:34;;;;;;;2.22;1.65;;;;;;;;;;4965084;28;20047;-96
2023/07/15 06:15:00;;;;;;;3.70;1.55;;;;;;;;;;4985523;28;20382;-96
2023/07/15 06:17:28;;;;;;;2.83;1.80;;;;;;;;;;4992012;28;20035;-96
2023/07/15 06:19:53;;;;;;;2.92;1.70;;;;;;;;;;4991975;28;20038;-96
2023/07/15 06:22:19;;;;;;;3.33;1.65;;;;;;;;;;4992414;28;20048;-96
2023/07/15 06:24:46;;;;;;;3.90;1.67;;;;;;;;;;4991464;28;20503;-96
2023/07/15 06:27:11;;;;;;;3.55;1.60;;;;;;;;;;4975807;28;20133;-96
2023/07/15 06:29:37;;;;;;;2.38;1.45;;;;;;;;;;4975620;28;20468;-95
2023/07/15 06:32:05;;;;;;;5.00;1.67;;;;;;;;;;4991637;28;20046;-96
2023/07/15 06:34:31;;;;;;;3.15;1.90;;;;;;;;;;4977043;28;20031;-96
2023/07/15 06:36:57;;;;;;;3.13;1.60;;;;;;;;;;4993036;28;20134;-96
2023/07/15 06:39:23;;;;;;;2.80;1.50;;;;;;;;;;4977680;28;20039;-96
2023/07/15 06:41:50;;;;;;;2.70;1.75;;;;;;;;;;4981755;28;20038;-96
2023/07/15 06:44:15;;;;;;;3.47;1.50;;;;;;;;;;4977660;28;20035;-96
2023/07/15 06:46:40;;;;;;;2.53;1.50;;;;;;;;;;4978423;28;20110;-96
2023/07/15 06:49:06;;;;;;;4.07;1.50;;;;;;;;;;4978817;28;20031;-96
2023/07/15 06:51:31;;;;;;;2.05;1.48;;;;;;;;;;4993326;28;20047;-96
2023/07/15 06:53:57;;;;;;;2.83;1.40;;;;;;;;;;4975049;28;20073;-96
2023/07/15 06:56:22;;;;;;;5.13;1.58;;;;;;;;;;4976126;28;20559;-96
2023/07/15 06:58:48;;;;;;;2.60;1.50;;;;;;;;;;4991646;28;20041;-96
2023/07/15 07:01:14;;;;;;;3.67;1.70;;;;;;;;;;4992967;28;20031;-96
2023/07/15 07:03:44;;;;;;;2.53;1.50;;;;;;;;;;4983246;28;20043;-96
2023/07/15 07:06:20;;;;;;;2.33;1.52;;;;;;;;;;4975757;28;20058;-96
2023/07/15 07:08:47;;;;;;;3.97;1.63;;;;;;;;;;4975558;28;20046;-96
2023/07/15 07:11:12;;;;;;;2.33;1.50;;;;;;;;;;4976520;28;20579;-96
2023/07/15 07:13:38;;;;;;;1.88;1.40;;;;;;;;;;4975370;28;20034;-96
2023/07/15 07:16:04;;;;;;;1.85;1.25;;;;;;;;;;4976186;28;20054;-96
2023/07/15 07:18:29;;;;;;;2.72;1.60;;;;;;;;;;4975035;28;20049;-96
2023/07/15 07:20:56;;;;;;;3.42;1.70;;;;;;;;;;4975391;28;20040;-96
2023/07/15 07:23:22;;;;;;;3.05;1.50;;;;;;;;;;4991819;28;20054;-96
2023/07/15 07:25:49;;;;;;;2.40;1.70;;;;;;;;;;4975788;28;20031;-96
2023/07/15 07:28:16;;;;;;;3.88;1.98;;;;;;;;;;4977018;28;20039;-96
2023/07/15 07:30:45;;;;;;;4.72;1.75;;;;;;;;;;4959363;28;20113;-96
2023/07/15 07:33:13;;;;;;;2.90;1.48;;;;;;;;;;4983975;28;20042;-96
2023/07/15 07:35:41;;;;;;;2.35;1.67;;;;;;;;;;4993098;28;20047;-96
2023/07/15 07:38:06;;;;;;;2.63;1.63;;;;;;;;;;4977243;28;20039;-96
2023/07/15 07:40:36;;;;;;;5.80;1.80;;;;;;;;;;4976375;28;20046;-96
2023/07/15 07:43:04;;;;;;;4.10;2.00;;;;;;;;;;4977070;28;20046;-96
2023/07/15 07:45:33;;;;;;;5.93;2.03;;;;;;;;;;4975594;28;20064;-96
2023/07/15 07:47:59;;;;;;;3.83;2.15;;;;;;;;;;4991611;28;20035;-96
2023/07/15 07:50:27;;;;;;;3.58;2.00;;;;;;;;;;4992207;28;20112;-96
2023/07/15 07:52:57;;;;;;;3.35;1.98;;;;;;;;;;4992419;28;20177;-96
2023/07/15 07:55:23;;;;;;;7.13;1.73;;;;;;;;;;4971216;28;20042;-96
2023/07/15 07:57:51;;;;;;;2.53;1.83;;;;;;;;;;4996059;28;20142;-96
2023/07/15 08:00:17;;;;;;;3.10;1.75;;;;;;;;;;4995308;28;20075;-96
2023/07/15 08:02:42;;;;;;;3.90;2.03;;;;;;;;;;4980086;28;20062;-96
2023/07/15 08:05:08;;;;;;;3.47;1.60;;;;;;;;;;4995232;28;20034;-96
2023/07/15 08:07:34;;;;;;;2.95;1.70;;;;;;;;;;4976229;28;20406;-96
2023/07/15 08:10:00;;;;;;;2.53;1.60;;;;;;;;;;4973797;28;20047;-96
2023/07/15 08:12:28;;;;;;;4.38;1.70;;;;;;;;;;4994229;28;20041;-96
2023/07/15 08:14:53;;;;;;;5.07;1.75;;;;;;;;;;4978670;28;20052;-96
2023/07/15 08:17:19;;;;;;;6.63;1.70;;;;;;;;;;4979840;28;20378;-96
2023/07/15 08:19:47;;;;;;;2.67;1.77;;;;;;;;;;4995774;28;20026;-96
2023/07/15 08:22:39;;;;;;;4.20;1.60;;;;;;;;;;4997132;28;20042;-96
2023/07/15 08:25:04;;;;;;;2.33;1.50;;;;;;;;;;4982550;28;20041;-96
2023/07/15 08:27:29;;;;;;;2.92;1.70;;;;;;;;;;4979569;28;20124;-96
2023/07/15 08:29:55;;;;;;;2.40;1.60;;;;;;;;;;5001667;28;20449;-96
2023/07/15 08:32:20;;;;;;;2.85;1.77;;;;;;;;;;5004337;28;20027;-96
2023/07/15 08:35:03;;;;;;;3.17;1.80;;;;;;;;;;4987570;28;20054;-96
2023/07/15 08:37:29;;;;;;;4.60;1.92;;;;;;;;;;4977437;28;20401;-96
2023/07/15 08:39:57;;;;;;;4.10;1.67;;;;;;;;;;4993432;28;20066;-96
2023/07/15 08:42:24;;;;;;;3.65;1.80;;;;;;;;;;4993489;28;20043;-96
2023/07/15 08:44:50;;;;;;;4.15;1.98;;;;;;;;;;4977978;28;20035;-96
2023/07/15 08:47:23;;;;;;;2.92;1.67;;;;;;;;;;4979595;28;20031;-96
2023/07/15 08:49:54;;;;;;;2.63;1.75;;;;;;;;;;4982911;28;20505;-96
2023/07/15 08:52:23;;;;;;;2.35;1.67;;;;;;;;;;4989054;28;20406;-96
2023/07/15 08:54:59;;;;;;;2.67;1.63;;;;;;;;;;4982087;28;20080;-96
2023/07/15 08:57:27;;;;;;;1.92;1.60;;;;;;;;;;4990106;28;20042;-96
2023/07/15 08:59:54;;;;;;;4.63;1.63;;;;;;;;;;4992852;28;20090;-96
2023/07/15 09:02:20;;;;;;;2.33;1.55;;;;;;;;;;4977283;28;20034;-96
2023/07/15 09:04:46;;;;;;;2.67;1.52;;;;;;;;;;4978082;28;20122;-96
2023/07/15 09:07:14;;;;;;;2.03;1.70;;;;;;;;;;4995913;28;20039;-96
2023/07/15 09:09:40;;;;;;;3.05;1.83;;;;;;;;;;4979179;28;20035;-96
2023/07/15 09:12:07;;;;;;;3.80;1.80;;;;;;;;;;4971124;28;20038;-96
2023/07/15 09:14:43;;;;;;;4.72;1.70;;;;;;;;;;4986682;28;20039;-96
2023/07/15 09:17:27;;;;;;;2.90;1.60;;;;;;;;;;4977078;28;20031;-96
2023/07/15 09:19:54;;;;;;;3.05;1.80;;;;;;;;;;4975811;28;20046;-96
2023/07/15 09:22:29;;;;;;;2.95;1.92;;;;;;;;;;4992174;28;20477;-96
2023/07/15 09:25:02;;;;;;;3.33;1.83;;;;;;;;;;4975892;28;20042;-96
2023/07/15 09:27:28;;;;;;;;;;;;;;;;;;4975670;28;20404;-96
2023/07/15 09:30:11;;;;;;;2.63;1.63;;;;;;;;;;4976358;28;19996;-96
2023/07/15 09:32:46;;;;;;;2.25;1.90;;;;;;;;;;4968408;28;20398;-96
2023/07/15 09:35:14;;;;;;;2.65;1.73;;;;;;;;;;4992055;28;20058;-96
2023/07/15 09:37:40;;;;;;;7.57;1.90;;;;;;;;;;4975116;28;20060;-96
2023/07/15 09:42:57;;;;;;;2.17;1.58;;;;;;;;;;5019333;28;20050;-81
2023/07/15 09:45:52;;;;;;;2.65;1.85;;;;;;;;;;5026239;28;20057;-80
2023/07/15 09:48:20;;;;;;;3.58;1.60;;;;;;;;;;5026869;28;20041;-80
2023/07/15 09:50:46;;;;;;;3.08;1.58;;;;;;;;;;5026434;28;20029;-80
2023/07/15 10:04:12;;;;;;;4.60;1.80;;;;;;;;;;4817557;29;20046;-79
2023/07/15 10:06:39;;;;;;;3.00;1.70;;;;;;;;;;4934550;28;20053;-80
2023/07/15 10:09:09;;;;;;;3.85;1.85;;;;;;;;;;5021154;28;20048;-80
2023/07/15 10:11:38;;;;;;;5.68;1.85;;;;;;;;;;5037635;28;20029;-80
2023/07/15 10:14:31;;;;;;;3.53;1.80;;;;;;;;;;5046601;28;20036;-80
2023/07/15 10:17:19;;;;;;;2.58;1.80;;;;;;;;;;5041657;28;20079;-78
2023/07/15 10:20:32;;;;;;;2.72;1.70;;;;;;;;;;5020570;28;20052;-80
2023/07/15 10:23:30;;;;;;;3.85;1.75;;;;;;;;;;5003777;28;20116;-80
2023/07/15 10:26:31;;;;;;;7.45;1.83;;;;;;;;;;5024347;28;20175;-80
2023/07/15 10:29:06;;;;;;;3.00;1.98;;;;;;;;;;5017222;28;20057;-80
2023/07/15 10:31:39;;;;;;;3.50;1.88;;;;;;;;;;5021778;28;20061;-80
2023/07/15 10:34:10;;;;;;;3.03;1.90;;;;;;;;;;5018200;28;20095;-80
2023/07/15 10:36:50;;;;;;;1.88;1.45;;;;;;;;;;5014999;28;20695;-80
2023/07/15 10:39:57;;;;;;;2.58;1.80;;;;;;;;;;4997523;28;20073;-80
2023/07/15 10:42:36;;;;;;;1.80;1.50;;;;;;;;;;5010820;28;20056;-80
2023/07/15 10:45:01;;;;;;;2.53;1.73;;;;;;;;;;5033270;28;20034;-79
2023/07/15 10:47:34;;;;;;;2.20;1.73;;;;;;;;;;5026481;28;20047;-79
2023/07/15 10:50:20;;;;;;;4.33;1.70;;;;;;;;;;5027446;28;20051;-79
2023/07/15 10:52:50;;;;;;;3.40;1.85;;;;;;;;;;5021563;28;21036;-79
2023/07/15 10:55:20;;;;;;;3.65;2.03;;;;;;;;;;5025842;28;20049;-80
2023/07/15 10:57:46;;;;;;;1.90;1.42;;;;;;;;;;5025702;28;20235;-79
2023/07/15 11:00:21;;;;;;;4.00;1.60;;;;;;;;;;5025406;28;20523;-79
2023/07/15 11:02:47;;;;;;;2.70;1.70;;;;;;;;;;5027432;28;20519;-80
2023/07/15 11:05:18;;;;;;;2.63;1.42;;;;;;;;;;5026623;28;20029;-79
2023/07/15 11:07:47;;;;;;;4.32;1.50;;;;;;;;;;5027724;28;20049;-80
2023/07/15 11:10:13;;;;;;;3.65;1.60;;;;;;;;;;5029783;28;20088;-80
2023/07/15 11:12:45;;;;;;;2.53;1.42;;;;;;;;;;5043180;28;20053;-80
2023/07/15 11:15:18;;;;;;;2.90;1.70;;;;;;;;;;5045642;28;20094;-80
2023/07/15 11:17:45;;;;;;;6.85;1.88;;;;;;;;;;5032601;28;20030;-80
2023/07/15 11:20:14;;;;;;;3.03;1.60;;;;;;;;;;5023855;28;20057;-80
2023/07/15 11:23:22;;;;;;;3.75;1.60;;;;;;;;;;5023567;28;20105;-79
2023/07/15 11:26:58;;;;;;;2.60;1.60;;;;;;;;;;4885421;29;20036;-79
2023/07/15 11:30:30;;;;;;;;;;;;;;;;;;;;;
2023/07/15 11:32:53;;;;;;;7.20;1.60;;;;;;;;;;4927376;29;20115;-79
2023/07/15 11:35:19;;;;;;;3.78;1.58;;;;;;;;;;4928217;28;20121;-79
2023/07/15 11:37:47;;;;;;;3.20;1.52;;;;;;;;;;5003036;28;20128;-79
2023/07/15 11:40:16;;;;;;;4.10;1.63;;;;;;;;;;5009820;28;20100;-79
2023/07/15 11:42:42;;;;;;;2.90;1.65;;;;;;;;;;5009235;28;20050;-79
2023/07/15 11:45:09;;;;;;;3.65;1.95;;;;;;;;;;5013724;28;20046;-79
2023/07/15 11:47:37;;;;;;;9.55;1.73;;;;;;;;;;5029091;28;20134;-79
2023/07/15 11:50:03;;;;;;;2.42;1.30;;;;;;;;;;5029016;28;20029;-79
2023/07/15 11:52:42;;;;;;;3.03;1.33;;;;;;;;;;5024678;28;20197;-80
2023/07/15 11:55:09;;;;;;;4.60;1.65;;;;;;;;;;5008525;28;20077;-79
2023/07/15 11:57:42;;;;;;;5.28;1.58;;;;;;;;;;5009151;28;20045;-79
2023/07/15 12:00:24;;;;;;;4.07;1.52;;;;;;;;;;5008821;28;20451;-80
2023/07/15 12:02:50;;;;;;;2.97;1.42;;;;;;;;;;5020161;28;20049;-80
2023/07/15 12:05:16;;;;;;;3.28;1.38;;;;;;;;;;5026749;28;20037;-80
2023/07/15 12:07:53;;;;;;;2.28;1.50;;;;;;;;;;5018841;28;20052;-80
2023/07/15 12:10:31;;;;;;;1.90;1.40;;;;;;;;;;5027558;28;20037;-80
2023/07/15 12:13:02;;;;;;;2.90;1.40;;;;;;;;;;5025386;28;20545;-79
2023/07/15 12:15:28;;;;;;;2.55;1.30;;;;;;;;;;5026323;28;20764;-80
2023/07/15 12:18:17;;;;;;;5.68;1.50;;;;;;;;;;5028034;28;20132;-80
2023/07/15 12:20:43;;;;;;;3.08;1.42;;;;;;;;;;5022654;28;20396;-79
2023/07/15 12:23:11;;;;;;;2.08;1.38;;;;;;;;;;5029197;28;20590;-79
2023/07/15 12:25:37;;;;;;;4.80;1.50;;;;;;;;;;5027440;28;20065;-79
2023/07/15 12:28:05;;;;;;;3.63;1.55;;;;;;;;;;5028185;28;20076;-79
2023/07/15 12:30:33;;;;;;;3.38;1.40;;;;;;;;;;5009019;28;20115;-79
2023/07/15 12:33:12;;;;;;;;;;;;;;;;;;;;;
2023/07/15 12:35:50;;;;;;;;;;;;;;;;;;;;;
2023/07/15 12:38:16;;;;;;;2.10;1.27;;;;;;;;;;5026455;28;20034;-79
2023/07/15 12:41:30;;;;;;;4.05;1.35;;;;;;;;;;5026323;28;20105;-79
2023/07/15 12:43:39;;;;;;;;;;;;;;;;;;;;;
2023/07/15 12:46:40;;;;;;;3.28;1.50;;;;;;;;;;5012746;28;20059;-79
2023/07/15 12:49:14;;;;;;;2.10;1.20;;;;;;;;;;5023853;28;20038;-79
2023/07/15 12:52:02;;;;;;;2.85;1.42;;;;;;;;;;5018643;28;20531;-79
2023/07/15 13:01:32;;;;;;;5.40;1.40;;;;;;;;;;4918169;29;20062;-80
2023/07/15 13:04:17;;;;;;;;;;;;;;;;;;;;;
2023/07/15 13:06:56;;;;;;;6.80;1.70;;;;;;;;;;5005847;28;20045;-80
2023/07/15 13:09:24;;;;;;;3.50;1.38;;;;;;;;;;5007219;28;20056;-80
2023/07/15 13:11:50;;;;;;;2.85;1.33;;;;;;;;;;5028012;28;20044;-79
2023/07/15 13:14:16;;;;;;;3.70;1.60;;;;;;;;;;5050797;28;20033;-80
2023/07/15 13:16:42;;;;;;;2.50;1.30;;;;;;;;;;5017045;28;20538;-79
2023/07/15 13:19:11;;;;;;;4.50;1.55;;;;;;;;;;5018927;28;20037;-80
2023/07/15 13:21:37;;;;;;;3.47;1.52;;;;;;;;;;5024859;28;20037;-79
2023/07/15 13:24:05;;;;;;;3.78;1.50;;;;;;;;;;5013183;28;20045;-80
2023/07/15 13:26:31;;;;;;;2.35;1.45;;;;;;;;;;5024504;28;20557;-80
2023/07/15 13:29:01;;;;;;;3.95;1.48;;;;;;;;;;5030238;28;20034;-79
2023/07/15 13:32:27;;;;;;;2.40;1.50;;;;;;;;;;5027257;28;20759;-80
2023/07/15 13:34:53;;;;;;;5.25;1.50;;;;;;;;;;5006733;28;20056;-79
2023/07/15 13:40:11;;;;;;;4.63;1.95;;;;;;;;;;5012721;28;20399;-79
2023/07/15 13:42:38;;;;;;;5.60;1.50;;;;;;;;;;5023561;28;20123;-80
2023/07/15 13:45:04;;;;;;;4.63;1.50;;;;;;;;;;5025014;28;20041;-80
2023/07/15 13:47:30;;;;;;;4.38;1.40;;;;;;;;;;5026585;28;20761;-80
2023/07/15 13:49:56;;;;;;;3.15;1.27;;;;;;;;;;5026319;28;20064;-80
2023/07/15 13:52:41;;;;;;;1.88;1.63;;;;;;;;;;5027021;28;20068;-81
2023/07/15 13:55:07;;;;;;;1.90;1.40;;;;;;;;;;5026758;28;20033;-80
2023/07/15 13:57:33;;;;;;;3.90;1.42;;;;;;;;;;5026737;28;20191;-80
2023/07/15 14:00:08;;;;;;;4.50;1.52;;;;;;;;;;5025721;28;20156;-80
2023/07/15 14:02:45;;;;;;;2.75;1.50;;;;;;;;;;5022202;28;20109;-80
2023/07/15 14:05:16;;;;;;;3.15;1.58;;;;;;;;;;5016689;28;20080;-80
2023/07/15 14:07:44;;;;;;;2.28;1.30;;;;;;;;;;5026104;28;20045;-79
2023/07/15 14:10:10;;;;;;;4.85;1.63;;;;;;;;;;5025640;28;20127;-79
2023/07/15 14:12:36;;;;;;;3.13;1.65;;;;;;;;;;5026789;28;20061;-79
2023/07/15 14:15:02;;;;;;;2.45;1.38;;;;;;;;;;5011697;28;20037;-79
2023/07/15 14:17:28;;;;;;;5.20;1.67;;;;;;;;;;5002526;28;20038;-79
2023/07/15 14:19:53;;;;;;;1.48;1.35;;;;;;;;;;5024110;28;20089;-79
2023/07/15 14:22:22;;;;;;;2.75;1.30;;;;;;;;;;5017681;28;20041;-79
2023/07/15 14:24:48;;;;;;;1.98;1.40;;;;;;;;;;5025806;28;20111;-80
2023/07/15 14:30:31;;;;;;;3.30;1.83;;;;;;;;;;5020305;28;20049;-79
2023/07/15 14:32:57;;;;;;;2.28;1.42;;;;;;;;;;4997809;28;20049;-80
2023/07/15 14:35:23;;;;;;;4.35;1.45;;;;;;;;;;5029646;28;20194;-79
2023/07/15 14:37:54;;;;;;;6.35;1.67;;;;;;;;;;5019610;28;20031;-79
2023/07/15 14:40:20;;;;;;;3.78;1.73;;;;;;;;;;5020945;28;20057;-79
2023/07/15 14:42:45;;;;;;;2.47;1.60;;;;;;;;;;5022807;28;20121;-78
2023/07/15 14:45:14;;;;;;;3.42;1.95;;;;;;;;;;5020949;28;20033;-79
2023/07/15 14:47:40;;;;;;;3.60;1.80;;;;;;;;;;5025976;28;20042;-79
2023/07/15 14:50:06;;;;;;;2.67;1.60;;;;;;;;;;5026841;28;20036;-79
2023/07/15 14:52:40;;;;;;;7.50;1.83;;;;;;;;;;5025902;28;20052;-79
2023/07/15 14:55:06;;;;;;;4.88;1.90;;;;;;;;;;5025650;28;20080;-79
2023/07/15 14:57:31;;;;;;;5.45;1.90;;;;;;;;;;5024613;28;20057;-79
2023/07/15 14:59:57;;;;;;;5.85;1.92;;;;;;;;;;5020060;28;20120;-79
2023/07/15 15:02:24;;;;;;;2.47;1.60;;;;;;;;;;5024978;28;20065;-79
2023/07/15 15:04:50;;;;;;;4.47;1.73;;;;;;;;;;5026174;28;20517;-79
2023/07/15 15:07:15;;;;;;;5.93;1.90;;;;;;;;;;5021390;28;20060;-79
2023/07/15 15:09:44;;;;;;;5.65;2.50;;;;;;;;;;5022031;28;20045;-79
2023/07/15 15:15:23;;;;;;;3.80;1.90;;;;;;;;;;4988791;28;20029;-78
2023/07/15 15:18:21;;;;;;;3.70;1.90;;;;;;;;;;5011457;28;20514;-78
2023/07/15 15:20:58;;;;;;;6.82;2.13;;;;;;;;;;4981740;28;20045;-79
2023/07/15 15:23:39;;;;;;;4.00;1.70;;;;;;;;;;5023731;28;20514;-79
2023/07/15 15:26:11;;;;;;;5.05;1.65;;;;;;;;;;5024774;28;20030;-79
2023/07/15 15:28:42;;;;;;;5.07;1.65;;;;;;;;;;5022426;28;20180;-79
2023/07/15 15:31:16;;;;;;;3.20;1.75;;;;;;;;;;5021291;28;20484;-79
2023/07/15 15:33:42;;;;;;;4.90;2.00;;;;;;;;;;5022069;28;20041;-79